sensor_id;sensor_type;location;lat;lon;timestamp;temperature;humidity
29413;DHT22;16389;50.126;8.450;2022-10-16T00:01:20;14.00;99.90
29413;DHT22;16389;50.126;8.450;2022-10-16T00:03:47;14.10;99.90
29413;DHT22;16389;50.126;8.450;2022-10-16T00:06:14;14.10;99.90
29413;DHT22;16389;50.126;8.450;2022-10-16T00:08:40;14.00;99.90
29413;DHT22;16389;50.126;8.450;2022-10-16T00:11:15;14.10;99.90
29413;DHT22;16389;50.126;8.450;2022-10-16T00:13:42;14.00;99.90
29413;DHT22;16389;50.126;8.450;2022-10-16T00:16:09;14.00;99.90
29413;DHT22;16389;50.126;8.450;2022-10-16T00:18:35;14.10;99.90
29413;DHT22;16389;50.126;8.450;2022-10-16T00:21:28;14.00;99.90
29413;DHT22;16389;50.126;8.450;2022-10-16T00:24:00;14.00;99.90
29413;DHT22;16389;50.126;8.450;2022-10-16T00:26:27;14.00;99.90
29413;DHT22;16389;50.126;8.450;2022-10-16T00:28:53;14.10;99.90
29413;DHT22;16389;50.126;8.450;2022-10-16T00:31:21;14.10;99.90
29413;DHT22;16389;50.126;8.450;2022-10-16T00:33:47;14.10;99.90
29413;DHT22;16389;50.126;8.450;2022-10-16T00:36:16;14.10;99.90
29413;DHT22;16389;50.126;8.450;2022-10-16T00:38:42;14.10;99.90
29413;DHT22;16389;50.126;8.450;2022-10-16T00:41:11;14.10;99.90
29413;DHT22;16389;50.126;8.450;2022-10-16T00:43:44;14.10;99.90
29413;DHT22;16389;50.126;8.450;2022-10-16T00:49:04;14.10;99.90
29413;DHT22;16389;50.126;8.450;2022-10-16T00:51:36;14.20;99.90
29413;DHT22;16389;50.126;8.450;2022-10-16T00:54:09;14.20;99.90
29413;DHT22;16389;50.126;8.450;2022-10-16T00:56:36;14.20;99.90
29413;DHT22;16389;50.126;8.450;2022-10-16T00:59:04;14.20;99.90
29413;DHT22;16389;50.126;8.450;2022-10-16T01:01:31;14.10;99.90
29413;DHT22;16389;50.126;8.450;2022-10-16T01:03:57;14.10;99.90
29413;DHT22;16389;50.126;8.450;2022-10-16T01:06:54;14.20;99.90
29413;DHT22;16389;50.126;8.450;2022-10-16T01:09:28;14.20;99.90
29413;DHT22;16389;50.126;8.450;2022-10-16T01:14:43;14.20;99.90
29413;DHT22;16389;50.126;8.450;2022-10-16T01:20:03;14.20;99.90
29413;DHT22;16389;50.126;8.450;2022-10-16T01:22:39;14.20;99.90
29413;DHT22;16389;50.126;8.450;2022-10-16T01:25:11;14.30;99.90
29413;DHT22;16389;50.126;8.450;2022-10-16T01:27:40;14.30;99.90
29413;DHT22;16389;50.126;8.450;2022-10-16T01:30:15;14.20;99.90
29413;DHT22;16389;50.126;8.450;2022-10-16T01:32:58;14.30;99.90
29413;DHT22;16389;50.126;8.450;2022-10-16T01:35:31;14.30;99.90
29413;DHT22;16389;50.126;8.450;2022-10-16T01:40:33;14.20;99.90
29413;DHT22;16389;50.126;8.450;2022-10-16T01:43:05;14.30;99.90
29413;DHT22;16389;50.126;8.450;2022-10-16T01:45:33;14.30;99.90
29413;DHT22;16389;50.126;8.450;2022-10-16T01:48:01;14.30;99.90
29413;DHT22;16389;50.126;8.450;2022-10-16T01:50:29;14.30;99.90
29413;DHT22;16389;50.126;8.450;2022-10-16T01:52:57;14.30;99.90
29413;DHT22;16389;50.126;8.450;2022-10-16T01:55:30;14.30;99.90
29413;DHT22;16389;50.126;8.450;2022-10-16T01:57:59;14.30;99.90
29413;DHT22;16389;50.126;8.450;2022-10-16T02:00:26;14.40;99.90
29413;DHT22;16389;50.126;8.450;2022-10-16T02:02:53;14.40;99.90
29413;DHT22;16389;50.126;8.450;2022-10-16T02:05:28;14.40;99.90
29413;DHT22;16389;50.126;8.450;2022-10-16T02:07:55;14.40;99.90
29413;DHT22;16389;50.126;8.450;2022-10-16T02:10:22;14.40;99.90
29413;DHT22;16389;50.126;8.450;2022-10-16T02:12:55;14.40;99.90
29413;DHT22;16389;50.126;8.450;2022-10-16T02:15:21;14.40;99.90
29413;DHT22;16389;50.126;8.450;2022-10-16T02:17:47;14.40;99.90
29413;DHT22;16389;50.126;8.450;2022-10-16T02:20:13;14.40;99.90
29413;DHT22;16389;50.126;8.450;2022-10-16T02:22:42;14.40;99.90
29413;DHT22;16389;50.126;8.450;2022-10-16T02:25:10;14.50;99.90
29413;DHT22;16389;50.126;8.450;2022-10-16T02:30:17;14.50;99.90
29413;DHT22;16389;50.126;8.450;2022-10-16T02:32:46;14.60;99.90
29413;DHT22;16389;50.126;8.450;2022-10-16T02:35:15;14.50;99.90
29413;DHT22;16389;50.126;8.450;2022-10-16T02:37:42;14.60;99.90
29413;DHT22;16389;50.126;8.450;2022-10-16T02:40:09;14.60;99.90
29413;DHT22;16389;50.126;8.450;2022-10-16T02:42:37;14.60;99.90
29413;DHT22;16389;50.126;8.450;2022-10-16T02:45:04;14.50;99.90
29413;DHT22;16389;50.126;8.450;2022-10-16T02:47:30;14.60;99.90
29413;DHT22;16389;50.126;8.450;2022-10-16T02:49:55;14.60;99.90
29413;DHT22;16389;50.126;8.450;2022-10-16T02:52:21;14.60;99.90
29413;DHT22;16389;50.126;8.450;2022-10-16T02:54:47;14.60;99.90
29413;DHT22;16389;50.126;8.450;2022-10-16T02:57:12;14.60;99.90
29413;DHT22;16389;50.126;8.450;2022-10-16T02:59:38;14.60;99.90
29413;DHT22;16389;50.126;8.450;2022-10-16T03:02:04;14.60;99.90
29413;DHT22;16389;50.126;8.450;2022-10-16T03:04:29;14.50;99.90
29413;DHT22;16389;50.126;8.450;2022-10-16T03:06:55;14.50;99.90
29413;DHT22;16389;50.126;8.450;2022-10-16T03:09:20;14.50;99.90
29413;DHT22;16389;50.126;8.450;2022-10-16T03:11:46;14.50;99.90
29413;DHT22;16389;50.126;8.450;2022-10-16T03:14:11;14.60;99.90
29413;DHT22;16389;50.126;8.450;2022-10-16T03:16:37;14.50;99.90
29413;DHT22;16389;50.126;8.450;2022-10-16T03:19:03;14.60;99.90
29413;DHT22;16389;50.126;8.450;2022-10-16T03:21:28;14.60;99.90
29413;DHT22;16389;50.126;8.450;2022-10-16T03:23:55;14.60;99.90
29413;DHT22;16389;50.126;8.450;2022-10-16T03:26:20;14.60;99.90
29413;DHT22;16389;50.126;8.450;2022-10-16T03:28:46;14.60;99.90
29413;DHT22;16389;50.126;8.450;2022-10-16T03:31:11;14.70;99.90
29413;DHT22;16389;50.126;8.450;2022-10-16T03:33:37;14.60;99.90
29413;DHT22;16389;50.126;8.450;2022-10-16T03:36:03;14.60;99.90
29413;DHT22;16389;50.126;8.450;2022-10-16T03:38:29;14.70;99.90
29413;DHT22;16389;50.126;8.450;2022-10-16T03:40:54;14.70;99.90
29413;DHT22;16389;50.126;8.450;2022-10-16T03:43:20;14.70;99.90
29413;DHT22;16389;50.126;8.450;2022-10-16T03:45:45;14.70;99.90
29413;DHT22;16389;50.126;8.450;2022-10-16T03:48:11;14.70;99.90
29413;DHT22;16389;50.126;8.450;2022-10-16T03:50:37;14.70;99.90
29413;DHT22;16389;50.126;8.450;2022-10-16T03:53:03;14.60;99.90
29413;DHT22;16389;50.126;8.450;2022-10-16T03:55:28;14.60;99.90
29413;DHT22;16389;50.126;8.450;2022-10-16T03:57:54;14.60;99.90
29413;DHT22;16389;50.126;8.450;2022-10-16T04:00:19;14.60;99.90
29413;DHT22;16389;50.126;8.450;2022-10-16T04:02:45;14.60;99.90
29413;DHT22;16389;50.126;8.450;2022-10-16T04:05:10;14.60;99.90
29413;DHT22;16389;50.126;8.450;2022-10-16T04:07:36;14.60;99.90
29413;DHT22;16389;50.126;8.450;2022-10-16T04:10:02;14.60;99.90
29413;DHT22;16389;50.126;8.450;2022-10-16T04:12:28;14.60;99.90
29413;DHT22;16389;50.126;8.450;2022-10-16T04:14:53;14.60;99.90
29413;DHT22;16389;50.126;8.450;2022-10-16T04:17:19;14.70;99.90
29413;DHT22;16389;50.126;8.450;2022-10-16T04:19:44;14.60;99.90
29413;DHT22;16389;50.126;8.450;2022-10-16T04:22:10;14.60;99.90
29413;DHT22;16389;50.126;8.450;2022-10-16T04:24:36;14.50;99.90
29413;DHT22;16389;50.126;8.450;2022-10-16T04:27:01;14.50;99.90
29413;DHT22;16389;50.126;8.450;2022-10-16T04:29:27;14.50;99.90
29413;DHT22;16389;50.126;8.450;2022-10-16T04:31:52;14.50;99.90
29413;DHT22;16389;50.126;8.450;2022-10-16T04:34:18;14.60;99.90
29413;DHT22;16389;50.126;8.450;2022-10-16T04:36:44;14.60;99.90
29413;DHT22;16389;50.126;8.450;2022-10-16T04:39:11;14.60;99.90
29413;DHT22;16389;50.126;8.450;2022-10-16T04:41:37;14.60;99.90
29413;DHT22;16389;50.126;8.450;2022-10-16T04:44:03;14.50;99.90
29413;DHT22;16389;50.126;8.450;2022-10-16T04:46:28;14.50;99.90
29413;DHT22;16389;50.126;8.450;2022-10-16T04:48:54;14.60;99.90
29413;DHT22;16389;50.126;8.450;2022-10-16T04:51:19;14.60;99.90
29413;DHT22;16389;50.126;8.450;2022-10-16T04:53:45;14.50;99.90
29413;DHT22;16389;50.126;8.450;2022-10-16T04:56:10;14.60;99.90
29413;DHT22;16389;50.126;8.450;2022-10-16T04:58:36;14.50;99.90
29413;DHT22;16389;50.126;8.450;2022-10-16T05:01:01;14.60;99.90
29413;DHT22;16389;50.126;8.450;2022-10-16T05:03:27;14.60;99.90
29413;DHT22;16389;50.126;8.450;2022-10-16T05:05:53;14.60;99.90
29413;DHT22;16389;50.126;8.450;2022-10-16T05:08:18;14.60;99.90
29413;DHT22;16389;50.126;8.450;2022-10-16T05:10:44;14.60;99.90
29413;DHT22;16389;50.126;8.450;2022-10-16T05:13:11;14.60;99.90
29413;DHT22;16389;50.126;8.450;2022-10-16T05:15:36;14.60;99.90
29413;DHT22;16389;50.126;8.450;2022-10-16T05:18:02;14.70;99.90
29413;DHT22;16389;50.126;8.450;2022-10-16T05:20:28;14.60;99.90
29413;DHT22;16389;50.126;8.450;2022-10-16T05:22:53;14.60;99.90
29413;DHT22;16389;50.126;8.450;2022-10-16T05:25:19;14.70;99.90
29413;DHT22;16389;50.126;8.450;2022-10-16T05:27:49;14.60;99.90
29413;DHT22;16389;50.126;8.450;2022-10-16T05:30:16;14.60;99.90
29413;DHT22;16389;50.126;8.450;2022-10-16T05:32:45;14.40;99.90
29413;DHT22;16389;50.126;8.450;2022-10-16T05:35:11;14.40;99.90
29413;DHT22;16389;50.126;8.450;2022-10-16T05:37:36;14.40;99.90
29413;DHT22;16389;50.126;8.450;2022-10-16T05:40:02;14.50;99.90
29413;DHT22;16389;50.126;8.450;2022-10-16T05:42:29;14.50;99.90
29413;DHT22;16389;50.126;8.450;2022-10-16T05:44:54;14.40;99.90
29413;DHT22;16389;50.126;8.450;2022-10-16T05:47:20;14.40;99.90
29413;DHT22;16389;50.126;8.450;2022-10-16T05:49:46;14.40;99.90
29413;DHT22;16389;50.126;8.450;2022-10-16T05:52:12;14.40;99.90
29413;DHT22;16389;50.126;8.450;2022-10-16T05:54:37;14.40;99.90
29413;DHT22;16389;50.126;8.450;2022-10-16T05:57:03;14.40;99.90
29413;DHT22;16389;50.126;8.450;2022-10-16T05:59:31;14.40;99.90
29413;DHT22;16389;50.126;8.450;2022-10-16T06:01:56;14.40;99.90
29413;DHT22;16389;50.126;8.450;2022-10-16T06:04:22;14.40;99.90
29413;DHT22;16389;50.126;8.450;2022-10-16T06:06:48;14.40;99.90
29413;DHT22;16389;50.126;8.450;2022-10-16T06:09:13;14.40;99.90
29413;DHT22;16389;50.126;8.450;2022-10-16T06:11:39;14.40;99.90
29413;DHT22;16389;50.126;8.450;2022-10-16T06:14:04;14.40;99.90
29413;DHT22;16389;50.126;8.450;2022-10-16T06:16:36;14.40;99.90
29413;DHT22;16389;50.126;8.450;2022-10-16T06:19:02;14.40;99.90
29413;DHT22;16389;50.126;8.450;2022-10-16T06:21:31;14.40;99.90
29413;DHT22;16389;50.126;8.450;2022-10-16T06:23:57;14.40;99.90
29413;DHT22;16389;50.126;8.450;2022-10-16T06:26:25;14.40;99.90
29413;DHT22;16389;50.126;8.450;2022-10-16T06:28:51;14.40;99.90
29413;DHT22;16389;50.126;8.450;2022-10-16T06:31:17;14.40;99.90
29413;DHT22;16389;50.126;8.450;2022-10-16T06:33:43;14.50;99.90
29413;DHT22;16389;50.126;8.450;2022-10-16T06:36:16;14.50;99.90
29413;DHT22;16389;50.126;8.450;2022-10-16T06:38:43;14.50;99.90
29413;DHT22;16389;50.126;8.450;2022-10-16T06:41:13;14.60;99.90
29413;DHT22;16389;50.126;8.450;2022-10-16T06:43:39;14.60;99.90
29413;DHT22;16389;50.126;8.450;2022-10-16T06:46:07;14.60;99.90
29413;DHT22;16389;50.126;8.450;2022-10-16T06:48:35;14.60;99.90
29413;DHT22;16389;50.126;8.450;2022-10-16T06:51:02;14.60;99.90
29413;DHT22;16389;50.126;8.450;2022-10-16T06:53:29;14.60;99.90
29413;DHT22;16389;50.126;8.450;2022-10-16T06:55:55;14.70;99.90
29413;DHT22;16389;50.126;8.450;2022-10-16T06:58:22;14.70;99.90
29413;DHT22;16389;50.126;8.450;2022-10-16T07:00:48;14.70;99.90
29413;DHT22;16389;50.126;8.450;2022-10-16T07:03:14;14.80;99.90
29413;DHT22;16389;50.126;8.450;2022-10-16T07:05:41;14.80;99.90
29413;DHT22;16389;50.126;8.450;2022-10-16T07:08:06;14.80;99.90
29413;DHT22;16389;50.126;8.450;2022-10-16T07:10:33;14.80;99.90
29413;DHT22;16389;50.126;8.450;2022-10-16T07:12:58;14.90;99.90
29413;DHT22;16389;50.126;8.450;2022-10-16T07:15:25;14.90;99.90
29413;DHT22;16389;50.126;8.450;2022-10-16T07:17:51;15.00;99.90
29413;DHT22;16389;50.126;8.450;2022-10-16T07:20:17;15.00;99.90
29413;DHT22;16389;50.126;8.450;2022-10-16T07:22:43;15.10;99.90
29413;DHT22;16389;50.126;8.450;2022-10-16T07:25:09;15.10;99.90
29413;DHT22;16389;50.126;8.450;2022-10-16T07:27:34;15.10;99.90
29413;DHT22;16389;50.126;8.450;2022-10-16T07:30:00;15.20;99.90
29413;DHT22;16389;50.126;8.450;2022-10-16T07:32:26;15.20;99.90
29413;DHT22;16389;50.126;8.450;2022-10-16T07:34:52;15.30;99.90
29413;DHT22;16389;50.126;8.450;2022-10-16T07:37:18;15.30;99.90
29413;DHT22;16389;50.126;8.450;2022-10-16T07:39:44;15.40;99.90
29413;DHT22;16389;50.126;8.450;2022-10-16T07:42:09;15.40;99.90
29413;DHT22;16389;50.126;8.450;2022-10-16T07:44:35;15.40;99.90
29413;DHT22;16389;50.126;8.450;2022-10-16T07:47:01;15.40;99.90
29413;DHT22;16389;50.126;8.450;2022-10-16T07:49:27;15.40;99.90
29413;DHT22;16389;50.126;8.450;2022-10-16T07:51:52;15.40;99.90
29413;DHT22;16389;50.126;8.450;2022-10-16T07:54:18;15.50;99.90
29413;DHT22;16389;50.126;8.450;2022-10-16T07:56:44;15.60;99.90
29413;DHT22;16389;50.126;8.450;2022-10-16T07:59:10;15.60;99.90
29413;DHT22;16389;50.126;8.450;2022-10-16T08:01:35;15.60;99.90
29413;DHT22;16389;50.126;8.450;2022-10-16T08:04:01;15.60;99.90
29413;DHT22;16389;50.126;8.450;2022-10-16T08:06:27;15.60;99.90
29413;DHT22;16389;50.126;8.450;2022-10-16T08:08:52;15.60;99.90
29413;DHT22;16389;50.126;8.450;2022-10-16T08:11:18;15.70;99.90
29413;DHT22;16389;50.126;8.450;2022-10-16T08:13:44;15.70;99.90
29413;DHT22;16389;50.126;8.450;2022-10-16T08:16:09;15.70;99.90
29413;DHT22;16389;50.126;8.450;2022-10-16T08:18:40;15.80;99.90
29413;DHT22;16389;50.126;8.450;2022-10-16T08:21:06;15.80;99.90
29413;DHT22;16389;50.126;8.450;2022-10-16T08:23:33;15.90;99.90
29413;DHT22;16389;50.126;8.450;2022-10-16T08:26:05;15.90;99.90
29413;DHT22;16389;50.126;8.450;2022-10-16T08:28:31;15.90;99.90
29413;DHT22;16389;50.126;8.450;2022-10-16T08:31:05;15.90;99.90
29413;DHT22;16389;50.126;8.450;2022-10-16T08:33:31;15.90;99.90
29413;DHT22;16389;50.126;8.450;2022-10-16T08:35:56;15.80;99.90
29413;DHT22;16389;50.126;8.450;2022-10-16T08:38:22;15.80;99.90
29413;DHT22;16389;50.126;8.450;2022-10-16T08:40:48;15.80;99.90
29413;DHT22;16389;50.126;8.450;2022-10-16T08:46:15;15.80;99.90
29413;DHT22;16389;50.126;8.450;2022-10-16T08:48:53;15.90;99.90
29413;DHT22;16389;50.126;8.450;2022-10-16T08:51:23;15.90;99.90
29413;DHT22;16389;50.126;8.450;2022-10-16T08:53:56;15.90;99.90
29413;DHT22;16389;50.126;8.450;2022-10-16T08:56:23;16.00;99.90
29413;DHT22;16389;50.126;8.450;2022-10-16T08:58:50;16.10;99.90
29413;DHT22;16389;50.126;8.450;2022-10-16T09:01:18;16.30;99.90
29413;DHT22;16389;50.126;8.450;2022-10-16T09:14:45;16.50;99.90
29413;DHT22;16389;50.126;8.450;2022-10-16T09:23:12;16.40;99.90
29413;DHT22;16389;50.126;8.450;2022-10-16T09:25:39;16.50;99.90
29413;DHT22;16389;50.126;8.450;2022-10-16T09:28:07;16.40;99.90
29413;DHT22;16389;50.126;8.450;2022-10-16T09:30:33;16.40;99.90
29413;DHT22;16389;50.126;8.450;2022-10-16T09:32:59;16.30;99.90
29413;DHT22;16389;50.126;8.450;2022-10-16T09:35:35;16.30;99.90
29413;DHT22;16389;50.126;8.450;2022-10-16T09:38:01;16.20;99.90
29413;DHT22;16389;50.126;8.450;2022-10-16T09:40:33;16.20;99.90
29413;DHT22;16389;50.126;8.450;2022-10-16T09:46:00;16.30;99.90
29413;DHT22;16389;50.126;8.450;2022-10-16T09:48:44;16.30;99.90
29413;DHT22;16389;50.126;8.450;2022-10-16T09:51:23;16.40;99.90
29413;DHT22;16389;50.126;8.450;2022-10-16T09:54:12;16.40;99.90
29413;DHT22;16389;50.126;8.450;2022-10-16T09:56:38;16.50;99.90
29413;DHT22;16389;50.126;8.450;2022-10-16T09:59:18;16.50;99.90
29413;DHT22;16389;50.126;8.450;2022-10-16T10:01:50;16.60;99.90
29413;DHT22;16389;50.126;8.450;2022-10-16T10:04:18;16.80;99.90
29413;DHT22;16389;50.126;8.450;2022-10-16T10:06:46;17.10;99.90
29413;DHT22;16389;50.126;8.450;2022-10-16T10:11:55;18.00;99.90
29413;DHT22;16389;50.126;8.450;2022-10-16T10:17:10;19.00;99.90
29413;DHT22;16389;50.126;8.450;2022-10-16T10:19:49;19.30;99.90
29413;DHT22;16389;50.126;8.450;2022-10-16T10:22:39;19.50;99.90
29413;DHT22;16389;50.126;8.450;2022-10-16T10:28:18;19.60;99.90
29413;DHT22;16389;50.126;8.450;2022-10-16T10:36:34;19.70;99.90
29413;DHT22;16389;50.126;8.450;2022-10-16T10:47:53;20.50;99.90
29413;DHT22;16389;50.126;8.450;2022-10-16T10:56:43;20.30;99.90
29413;DHT22;16389;50.126;8.450;2022-10-16T11:02:41;20.20;99.90
29413;DHT22;16389;50.126;8.450;2022-10-16T11:05:40;20.00;99.90
29413;DHT22;16389;50.126;8.450;2022-10-16T11:10:58;19.50;99.90
29413;DHT22;16389;50.126;8.450;2022-10-16T11:16:23;19.10;99.90
29413;DHT22;16389;50.126;8.450;2022-10-16T11:22:28;19.00;99.90
29413;DHT22;16389;50.126;8.450;2022-10-16T11:25:17;19.10;99.90
29413;DHT22;16389;50.126;8.450;2022-10-16T11:30:47;21.20;99.90
29413;DHT22;16389;50.126;8.450;2022-10-16T11:33:41;22.50;99.90
29413;DHT22;16389;50.126;8.450;2022-10-16T11:36:39;23.10;99.90
29413;DHT22;16389;50.126;8.450;2022-10-16T11:51:19;23.70;99.90
29413;DHT22;16389;50.126;8.450;2022-10-16T11:56:32;22.20;99.90
29413;DHT22;16389;50.126;8.450;2022-10-16T12:01:51;21.80;99.90
29413;DHT22;16389;50.126;8.450;2022-10-16T12:07:32;21.40;99.90
29413;DHT22;16389;50.126;8.450;2022-10-16T12:10:19;21.20;99.90
29413;DHT22;16389;50.126;8.450;2022-10-16T12:12:45;21.10;99.90
29413;DHT22;16389;50.126;8.450;2022-10-16T12:15:29;20.90;99.90
29413;DHT22;16389;50.126;8.450;2022-10-16T12:17:56;20.50;99.90
29413;DHT22;16389;50.126;8.450;2022-10-16T12:20:30;20.40;99.90
29413;DHT22;16389;50.126;8.450;2022-10-16T12:23:02;20.40;99.90
29413;DHT22;16389;50.126;8.450;2022-10-16T12:25:39;20.60;99.90
29413;DHT22;16389;50.126;8.450;2022-10-16T12:30:41;20.80;99.90
29413;DHT22;16389;50.126;8.450;2022-10-16T12:33:33;20.80;99.90
29413;DHT22;16389;50.126;8.450;2022-10-16T12:36:27;20.80;99.90
29413;DHT22;16389;50.126;8.450;2022-10-16T12:38:56;20.90;99.90
29413;DHT22;16389;50.126;8.450;2022-10-16T12:41:45;20.70;99.90
29413;DHT22;16389;50.126;8.450;2022-10-16T12:49:59;21.00;99.90
29413;DHT22;16389;50.126;8.450;2022-10-16T12:52:38;20.90;99.90
29413;DHT22;16389;50.126;8.450;2022-10-16T12:55:20;20.90;99.90
29413;DHT22;16389;50.126;8.450;2022-10-16T13:00:56;20.80;99.90
29413;DHT22;16389;50.126;8.450;2022-10-16T13:07:03;20.40;99.90
29413;DHT22;16389;50.126;8.450;2022-10-16T13:13:22;20.50;99.90
29413;DHT22;16389;50.126;8.450;2022-10-16T13:16:02;20.70;99.90
29413;DHT22;16389;50.126;8.450;2022-10-16T13:18:48;20.90;99.90
29413;DHT22;16389;50.126;8.450;2022-10-16T13:21:43;21.10;99.90
29413;DHT22;16389;50.126;8.450;2022-10-16T13:26:55;21.30;99.90
29413;DHT22;16389;50.126;8.450;2022-10-16T13:29:22;21.50;99.90
29413;DHT22;16389;50.126;8.450;2022-10-16T13:31:48;21.50;99.90
29413;DHT22;16389;50.126;8.450;2022-10-16T13:34:43;21.40;99.90
29413;DHT22;16389;50.126;8.450;2022-10-16T13:37:37;21.50;99.90
29413;DHT22;16389;50.126;8.450;2022-10-16T13:40:24;21.70;99.90
29413;DHT22;16389;50.126;8.450;2022-10-16T13:42:59;21.50;99.90
29413;DHT22;16389;50.126;8.450;2022-10-16T13:45:26;21.50;99.90
29413;DHT22;16389;50.126;8.450;2022-10-16T13:48:05;21.40;99.90
29413;DHT22;16389;50.126;8.450;2022-10-16T13:50:31;21.20;99.90
29413;DHT22;16389;50.126;8.450;2022-10-16T13:53:13;21.00;99.90
29413;DHT22;16389;50.126;8.450;2022-10-16T13:55:47;20.80;99.90
29413;DHT22;16389;50.126;8.450;2022-10-16T13:58:15;20.70;99.90
29413;DHT22;16389;50.126;8.450;2022-10-16T14:00:56;20.50;99.90
29413;DHT22;16389;50.126;8.450;2022-10-16T14:03:27;20.50;99.90
29413;DHT22;16389;50.126;8.450;2022-10-16T14:06:18;20.40;99.90
29413;DHT22;16389;50.126;8.450;2022-10-16T14:12:20;20.10;99.90
29413;DHT22;16389;50.126;8.450;2022-10-16T14:15:22;20.10;99.90
29413;DHT22;16389;50.126;8.450;2022-10-16T14:18:21;19.90;99.90
29413;DHT22;16389;50.126;8.450;2022-10-16T14:21:19;19.90;99.90
29413;DHT22;16389;50.126;8.450;2022-10-16T14:23:49;19.80;99.90
29413;DHT22;16389;50.126;8.450;2022-10-16T14:26:53;19.70;99.90
29413;DHT22;16389;50.126;8.450;2022-10-16T14:29:26;19.70;99.90
29413;DHT22;16389;50.126;8.450;2022-10-16T14:32:04;19.80;99.90
29413;DHT22;16389;50.126;8.450;2022-10-16T14:34:36;19.70;99.90
29413;DHT22;16389;50.126;8.450;2022-10-16T14:39:50;19.70;99.90
29413;DHT22;16389;50.126;8.450;2022-10-16T14:42:21;19.70;99.90
29413;DHT22;16389;50.126;8.450;2022-10-16T14:44:50;19.80;99.90
29413;DHT22;16389;50.126;8.450;2022-10-16T14:47:20;19.80;99.90
29413;DHT22;16389;50.126;8.450;2022-10-16T14:49:50;19.80;99.90
29413;DHT22;16389;50.126;8.450;2022-10-16T14:52:15;19.90;99.90
29413;DHT22;16389;50.126;8.450;2022-10-16T14:54:41;19.90;99.90
29413;DHT22;16389;50.126;8.450;2022-10-16T14:57:18;19.90;99.90
29413;DHT22;16389;50.126;8.450;2022-10-16T14:59:45;19.90;99.90
29413;DHT22;16389;50.126;8.450;2022-10-16T15:04:46;20.00;99.90
29413;DHT22;16389;50.126;8.450;2022-10-16T15:07:12;20.00;99.90
29413;DHT22;16389;50.126;8.450;2022-10-16T15:09:38;20.00;99.90
29413;DHT22;16389;50.126;8.450;2022-10-16T15:12:03;19.90;99.90
29413;DHT22;16389;50.126;8.450;2022-10-16T15:14:29;19.70;99.90
29413;DHT22;16389;50.126;8.450;2022-10-16T15:16:55;19.60;99.90
29413;DHT22;16389;50.126;8.450;2022-10-16T15:19:20;19.50;99.90
29413;DHT22;16389;50.126;8.450;2022-10-16T15:21:46;19.30;99.90
29413;DHT22;16389;50.126;8.450;2022-10-16T15:24:13;19.30;99.90
29413;DHT22;16389;50.126;8.450;2022-10-16T15:26:39;19.10;99.90
29413;DHT22;16389;50.126;8.450;2022-10-16T15:29:05;19.10;99.90
29413;DHT22;16389;50.126;8.450;2022-10-16T15:31:31;19.00;99.90
29413;DHT22;16389;50.126;8.450;2022-10-16T15:33:57;18.90;99.90
29413;DHT22;16389;50.126;8.450;2022-10-16T15:36:41;18.80;99.90
29413;DHT22;16389;50.126;8.450;2022-10-16T15:39:18;18.80;99.90
29413;DHT22;16389;50.126;8.450;2022-10-16T15:41:46;18.70;99.90
29413;DHT22;16389;50.126;8.450;2022-10-16T15:44:17;18.60;99.90
29413;DHT22;16389;50.126;8.450;2022-10-16T15:46:42;18.60;99.90
29413;DHT22;16389;50.126;8.450;2022-10-16T15:49:08;18.50;99.90
29413;DHT22;16389;50.126;8.450;2022-10-16T15:51:38;18.40;99.90
29413;DHT22;16389;50.126;8.450;2022-10-16T15:54:03;18.30;99.90
29413;DHT22;16389;50.126;8.450;2022-10-16T15:56:29;18.20;99.90
29413;DHT22;16389;50.126;8.450;2022-10-16T15:58:58;18.20;99.90
29413;DHT22;16389;50.126;8.450;2022-10-16T16:01:24;18.10;99.90
29413;DHT22;16389;50.126;8.450;2022-10-16T16:03:53;18.10;99.90
29413;DHT22;16389;50.126;8.450;2022-10-16T16:06:19;18.00;99.90
29413;DHT22;16389;50.126;8.450;2022-10-16T16:08:45;18.00;99.90
29413;DHT22;16389;50.126;8.450;2022-10-16T16:11:12;17.90;99.90
29413;DHT22;16389;50.126;8.450;2022-10-16T16:13:39;17.90;99.90
29413;DHT22;16389;50.126;8.450;2022-10-16T16:16:10;17.90;99.90
29413;DHT22;16389;50.126;8.450;2022-10-16T16:18:37;17.80;99.90
29413;DHT22;16389;50.126;8.450;2022-10-16T16:21:03;17.80;99.90
29413;DHT22;16389;50.126;8.450;2022-10-16T16:23:29;17.80;99.90
29413;DHT22;16389;50.126;8.450;2022-10-16T16:26:11;17.70;99.90
29413;DHT22;16389;50.126;8.450;2022-10-16T16:28:38;17.70;99.90
29413;DHT22;16389;50.126;8.450;2022-10-16T16:31:04;17.60;99.90
29413;DHT22;16389;50.126;8.450;2022-10-16T16:33:29;17.60;99.90
29413;DHT22;16389;50.126;8.450;2022-10-16T16:36:01;17.50;99.90
29413;DHT22;16389;50.126;8.450;2022-10-16T16:38:26;17.50;99.90
29413;DHT22;16389;50.126;8.450;2022-10-16T16:40:53;17.40;99.90
29413;DHT22;16389;50.126;8.450;2022-10-16T16:43:22;17.30;99.90
29413;DHT22;16389;50.126;8.450;2022-10-16T16:45:47;17.30;99.90
29413;DHT22;16389;50.126;8.450;2022-10-16T16:48:13;17.20;99.90
29413;DHT22;16389;50.126;8.450;2022-10-16T16:50:39;17.20;99.90
29413;DHT22;16389;50.126;8.450;2022-10-16T16:53:04;17.10;99.90
29413;DHT22;16389;50.126;8.450;2022-10-16T16:55:30;17.10;99.90
29413;DHT22;16389;50.126;8.450;2022-10-16T16:58:01;17.00;99.90
29413;DHT22;16389;50.126;8.450;2022-10-16T17:00:28;17.00;99.90
29413;DHT22;16389;50.126;8.450;2022-10-16T17:02:58;17.00;99.90
29413;DHT22;16389;50.126;8.450;2022-10-16T17:05:41;16.90;99.90
29413;DHT22;16389;50.126;8.450;2022-10-16T17:08:07;16.90;99.90
29413;DHT22;16389;50.126;8.450;2022-10-16T17:10:42;16.90;99.90
29413;DHT22;16389;50.126;8.450;2022-10-16T17:13:08;16.90;99.90
29413;DHT22;16389;50.126;8.450;2022-10-16T17:15:48;16.80;99.90
29413;DHT22;16389;50.126;8.450;2022-10-16T17:18:19;16.80;99.90
29413;DHT22;16389;50.126;8.450;2022-10-16T17:20:46;16.80;99.90
29413;DHT22;16389;50.126;8.450;2022-10-16T17:23:21;16.80;99.90
29413;DHT22;16389;50.126;8.450;2022-10-16T17:25:47;16.80;99.90
29413;DHT22;16389;50.126;8.450;2022-10-16T17:28:13;16.70;99.90
29413;DHT22;16389;50.126;8.450;2022-10-16T17:30:40;16.70;99.90
29413;DHT22;16389;50.126;8.450;2022-10-16T17:33:06;16.60;99.90
29413;DHT22;16389;50.126;8.450;2022-10-16T17:35:43;16.60;99.90
29413;DHT22;16389;50.126;8.450;2022-10-16T17:38:10;16.60;99.90
29413;DHT22;16389;50.126;8.450;2022-10-16T17:40:36;16.50;99.90
29413;DHT22;16389;50.126;8.450;2022-10-16T17:43:02;16.40;99.90
29413;DHT22;16389;50.126;8.450;2022-10-16T17:45:28;16.40;99.90
29413;DHT22;16389;50.126;8.450;2022-10-16T17:47:54;16.30;99.90
29413;DHT22;16389;50.126;8.450;2022-10-16T17:50:20;16.30;99.90
29413;DHT22;16389;50.126;8.450;2022-10-16T17:52:45;16.30;99.90
29413;DHT22;16389;50.126;8.450;2022-10-16T17:55:11;16.20;99.90
29413;DHT22;16389;50.126;8.450;2022-10-16T17:57:37;16.10;99.90